Time;durP1;ratioP1;P1;durP2;ratioP2;P2;SDS_P1;SDS_P2;PMS_P1;PMS_P2;Temp;Humidity;BMP_temperature;BMP_pressure;BME280_temperature;BME280_humidity;BME280_pressure;Samples;Min_cycle;Max_cycle;Signal;HPM_P1;HPM_P2
2022/01/30 16:21:47;;;;;;;27.23;4.53;;;;;;;;;;7230128;19;41185;-80
2022/01/30 16:24:12;;;;;;;20.52;4.72;;;;;;;;;;7337561;19;20015;-78
2022/01/30 16:26:38;;;;;;;18.05;3.85;;;;;;;;;;7357126;19;19998;-80
2022/01/30 16:29:03;;;;;;;22.38;4.05;;;;;;;;;;7358494;19;20067;-79
2022/01/30 16:31:28;;;;;;;16.27;3.28;;;;;;;;;;7364502;19;20003;-80
2022/01/30 16:33:56;;;;;;;19.67;4.03;;;;;;;;;;7378094;19;20014;-79
2022/01/30 16:36:21;;;;;;;19.98;3.65;;;;;;;;;;7373926;19;20434;-80
2022/01/30 16:38:46;;;;;;;20.15;4.18;;;;;;;;;;7369352;19;20019;-80
2022/01/30 16:41:11;;;;;;;19.30;4.03;;;;;;;;;;7365991;19;20791;-78
2022/01/30 16:46:33;;;;;;;22.35;4.43;;;;;;;;;;7364223;19;20003;-80
2022/01/30 16:48:59;;;;;;;17.95;3.40;;;;;;;;;;7375647;19;20026;-78
2022/01/30 16:51:25;;;;;;;19.13;3.88;;;;;;;;;;7370105;19;20203;-79
2022/01/30 16:53:50;;;;;;;14.32;3.55;;;;;;;;;;7373460;19;20434;-80
2022/01/30 16:56:17;;;;;;;14.77;3.70;;;;;;;;;;7352929;19;19999;-79
2022/01/30 16:58:42;;;;;;;23.98;5.70;;;;;;;;;;7375027;19;20015;-79
2022/01/30 17:01:08;;;;;;;22.95;5.50;;;;;;;;;;7365194;19;20138;-80
2022/01/30 17:03:34;;;;;;;12.38;4.88;;;;;;;;;;7345233;19;20022;-79
2022/01/30 17:05:59;;;;;;;20.30;4.82;;;;;;;;;;7356983;19;20841;-79
2022/01/30 17:08:27;;;;;;;26.95;4.13;;;;;;;;;;7370474;19;20299;-80
2022/01/30 17:10:57;;;;;;;16.80;3.70;;;;;;;;;;7353326;19;20336;-78
2022/01/30 17:13:23;;;;;;;19.05;3.75;;;;;;;;;;7366729;19;20029;-79
2022/01/30 17:15:50;;;;;;;19.67;4.25;;;;;;;;;;7356586;19;19995;-78
2022/01/30 17:18:15;;;;;;;17.20;3.85;;;;;;;;;;7359763;19;20007;-80
2022/01/30 17:20:42;;;;;;;13.10;3.83;;;;;;;;;;7362305;19;20091;-79
2022/01/30 17:23:07;;;;;;;12.80;3.60;;;;;;;;;;7357915;19;20007;-78
2022/01/30 17:25:33;;;;;;;22.80;4.32;;;;;;;;;;7357244;19;20629;-80
2022/01/30 17:27:59;;;;;;;18.23;3.55;;;;;;;;;;7366678;19;20005;-78
2022/01/30 17:30:25;;;;;;;17.45;3.80;;;;;;;;;;7361252;19;20006;-79
2022/01/30 17:32:50;;;;;;;21.58;4.60;;;;;;;;;;7367328;19;20002;-78
2022/01/30 17:35:15;;;;;;;19.77;4.00;;;;;;;;;;7346249;19;20030;-80
2022/01/30 17:37:40;;;;;;;14.15;3.30;;;;;;;;;;7363356;19;20006;-80
2022/01/30 17:40:06;;;;;;;17.35;3.97;;;;;;;;;;7360323;19;20003;-78
2022/01/30 17:42:32;;;;;;;16.58;4.10;;;;;;;;;;7373507;19;20003;-79
2022/01/30 17:44:57;;;;;;;24.73;4.07;;;;;;;;;;7368519;19;20042;-79
2022/01/30 17:47:22;;;;;;;19.70;4.05;;;;;;;;;;7371771;19;20485;-78
2022/01/30 17:49:48;;;;;;;12.15;3.72;;;;;;;;;;7360696;19;20017;-78
2022/01/30 17:52:13;;;;;;;23.20;5.15;;;;;;;;;;7357901;19;20002;-80
2022/01/30 17:54:38;;;;;;;18.80;4.35;;;;;;;;;;7369673;19;20331;-79
2022/01/30 17:57:04;;;;;;;21.17;4.28;;;;;;;;;;7371388;19;20349;-79
2022/01/30 17:59:29;;;;;;;20.27;4.80;;;;;;;;;;7368658;19;20018;-78
2022/01/30 18:01:55;;;;;;;22.38;4.18;;;;;;;;;;7319482;19;20622;-78
2022/01/30 18:04:22;;;;;;;21.70;5.47;;;;;;;;;;7367483;19;20021;-78
2022/01/30 18:06:47;;;;;;;18.92;4.38;;;;;;;;;;7365052;19;20610;-80
2022/01/30 18:09:13;;;;;;;16.98;4.07;;;;;;;;;;7366304;19;20078;-79
2022/01/30 18:11:38;;;;;;;28.90;4.75;;;;;;;;;;7346877;19;20017;-81
2022/01/30 18:14:04;;;;;;;25.83;5.35;;;;;;;;;;7358399;19;20016;-79
2022/01/30 18:16:29;;;;;;;29.00;6.97;;;;;;;;;;7353013;19;20002;-77
2022/01/30 18:18:54;;;;;;;17.33;5.95;;;;;;;;;;7331736;19;20081;-79
2022/01/30 18:21:19;;;;;;;28.85;6.85;;;;;;;;;;7349498;19;20014;-78
2022/01/30 18:23:45;;;;;;;23.42;5.30;;;;;;;;;;7354346;19;20010;-79
2022/01/30 18:26:10;;;;;;;22.20;4.90;;;;;;;;;;7350796;19;20100;-81
2022/01/30 18:28:37;;;;;;;27.90;5.30;;;;;;;;;;7368404;19;20479;-79
2022/01/30 18:31:02;;;;;;;18.15;4.07;;;;;;;;;;7362439;19;20035;-80
2022/01/30 18:33:27;;;;;;;20.48;4.50;;;;;;;;;;7352300;19;19999;-81
2022/01/30 18:36:00;;;;;;;14.68;5.38;;;;;;;;;;7342426;19;20360;-80
2022/01/30 18:41:05;;;;;;;17.90;5.35;;;;;;;;;;7366886;19;20024;-80
2022/01/30 18:43:34;;;;;;;15.93;5.45;;;;;;;;;;7358112;19;20390;-80
2022/01/30 18:46:00;;;;;;;32.50;11.23;;;;;;;;;;7357327;19;20522;-78
2022/01/30 18:48:25;;;;;;;47.22;18.90;;;;;;;;;;7353959;19;20021;-79
2022/01/30 18:50:50;;;;;;;33.05;11.82;;;;;;;;;;7371782;19;20003;-79
2022/01/30 18:53:17;;;;;;;19.48;6.47;;;;;;;;;;7362155;19;20248;-78
2022/01/30 18:55:42;;;;;;;27.27;7.32;;;;;;;;;;7348037;19;20057;-79
2022/01/30 18:58:08;;;;;;;25.08;9.23;;;;;;;;;;7359500;19;19990;-80
2022/01/30 19:00:33;;;;;;;23.23;8.63;;;;;;;;;;7368201;19;20007;-80
2022/01/30 19:02:58;;;;;;;26.20;7.43;;;;;;;;;;7356960;19;20014;-79
2022/01/30 19:05:24;;;;;;;19.85;5.72;;;;;;;;;;7360984;19;20497;-78
2022/01/30 19:07:50;;;;;;;19.63;5.72;;;;;;;;;;7371833;19;20006;-79
2022/01/30 19:12:46;;;;;;;19.85;6.00;;;;;;;;;;7368660;19;20022;-81
2022/01/30 19:15:11;;;;;;;25.45;5.97;;;;;;;;;;7347469;19;20424;-79
2022/01/30 19:17:37;;;;;;;19.17;5.88;;;;;;;;;;7363172;19;20015;-80
2022/01/30 19:20:02;;;;;;;17.80;6.10;;;;;;;;;;7369256;19;20015;-77
2022/01/30 19:22:27;;;;;;;21.67;5.70;;;;;;;;;;7355727;19;20013;-81
2022/01/30 19:24:54;;;;;;;15.63;5.40;;;;;;;;;;7356631;19;20011;-77
2022/01/30 19:27:19;;;;;;;28.00;5.95;;;;;;;;;;7362612;19;20065;-80
2022/01/30 19:29:45;;;;;;;19.65;5.57;;;;;;;;;;7366944;19;20018;-80
2022/01/30 19:32:11;;;;;;;23.63;6.03;;;;;;;;;;7341790;19;20010;-81
2022/01/30 19:34:36;;;;;;;18.08;5.53;;;;;;;;;;7360334;19;20019;-80
2022/01/30 19:37:02;;;;;;;18.92;5.18;;;;;;;;;;7370289;19;20023;-81
2022/01/30 19:39:27;;;;;;;22.42;5.20;;;;;;;;;;7365033;19;20017;-81
2022/01/30 19:41:53;;;;;;;14.70;4.18;;;;;;;;;;7378400;19;19999;-79
2022/01/30 19:44:18;;;;;;;25.80;9.55;;;;;;;;;;7358874;19;20046;-80
2022/01/30 19:46:46;;;;;;;26.90;6.25;;;;;;;;;;7361048;19;20432;-80
2022/01/30 19:49:12;;;;;;;31.30;7.43;;;;;;;;;;7378038;19;20014;-79
2022/01/30 19:51:37;;;;;;;21.85;6.18;;;;;;;;;;7367225;19;20122;-79
2022/01/30 19:54:02;;;;;;;18.40;5.63;;;;;;;;;;7380680;19;20146;-79
2022/01/30 19:56:33;;;;;;;19.02;5.82;;;;;;;;;;7373891;19;20260;-79
2022/01/30 19:58:58;;;;;;;22.30;5.20;;;;;;;;;;7377452;19;20011;-80
2022/01/30 20:01:24;;;;;;;21.73;5.20;;;;;;;;;;7367990;19;20018;-79
2022/01/30 20:03:49;;;;;;;16.92;5.80;;;;;;;;;;7386919;19;20474;-80
2022/01/30 20:06:14;;;;;;;28.75;7.93;;;;;;;;;;7380557;19;20106;-80
2022/01/30 20:08:40;;;;;;;29.70;8.68;;;;;;;;;;7376314;19;20335;-80
2022/01/30 20:11:05;;;;;;;27.90;7.45;;;;;;;;;;7367766;19;20304;-80
2022/01/30 20:13:30;;;;;;;22.70;6.88;;;;;;;;;;7375908;19;20010;-82
2022/01/30 20:15:57;;;;;;;20.92;6.93;;;;;;;;;;7373696;19;20420;-79
2022/01/30 20:18:23;;;;;;;21.30;6.47;;;;;;;;;;7366799;19;20026;-81
2022/01/30 20:20:48;;;;;;;19.15;6.47;;;;;;;;;;7370909;19;20018;-81
2022/01/30 20:23:14;;;;;;;21.05;6.03;;;;;;;;;;7372928;19;19994;-81
2022/01/30 20:25:40;;;;;;;27.35;5.65;;;;;;;;;;7365136;19;20074;-80
2022/01/30 20:28:06;;;;;;;18.98;5.20;;;;;;;;;;7376836;19;20002;-79
2022/01/30 20:30:31;;;;;;;16.08;5.50;;;;;;;;;;7367355;19;20356;-81
2022/01/30 20:32:56;;;;;;;19.90;6.00;;;;;;;;;;7372554;19;20014;-81
2022/01/30 20:35:21;;;;;;;19.38;5.60;;;;;;;;;;7377782;19;20013;-82
2022/01/30 20:37:47;;;;;;;27.65;6.03;;;;;;;;;;7367510;19;20354;-80
2022/01/30 20:42:44;;;;;;;16.15;6.57;;;;;;;;;;7361039;19;20022;-82
2022/01/30 20:45:11;;;;;;;26.15;7.40;;;;;;;;;;7373671;19;20011;-82
2022/01/30 20:47:38;;;;;;;34.35;7.90;;;;;;;;;;7358633;19;20014;-80
2022/01/30 20:50:03;;;;;;;33.53;8.55;;;;;;;;;;7375685;19;20504;-80
2022/01/30 20:52:29;;;;;;;26.98;8.70;;;;;;;;;;7372272;19;20268;-83
2022/01/30 20:54:54;;;;;;;24.60;8.27;;;;;;;;;;7373395;19;20007;-81
2022/01/30 20:57:22;;;;;;;25.73;7.75;;;;;;;;;;7363244;19;20007;-80
2022/01/30 20:59:49;;;;;;;25.33;7.20;;;;;;;;;;7349904;19;20002;-81
2022/01/30 21:02:14;;;;;;;22.98;6.57;;;;;;;;;;7331258;19;20010;-79
2022/01/30 21:04:39;;;;;;;20.63;5.55;;;;;;;;;;7361927;19;20012;-81
2022/01/30 21:07:04;;;;;;;17.95;5.38;;;;;;;;;;7377912;19;20475;-80
2022/01/30 21:09:29;;;;;;;14.95;4.85;;;;;;;;;;7371393;19;20007;-80
2022/01/30 21:11:55;;;;;;;20.83;5.53;;;;;;;;;;7361722;19;20014;-79
2022/01/30 21:14:22;;;;;;;18.67;5.55;;;;;;;;;;7350682;19;20018;-82
2022/01/30 21:16:48;;;;;;;14.02;4.78;;;;;;;;;;7354216;19;20437;-80
2022/01/30 21:19:14;;;;;;;16.77;4.75;;;;;;;;;;7368233;19;20025;-80
2022/01/30 21:21:39;;;;;;;21.75;6.30;;;;;;;;;;7370748;19;20471;-81
2022/01/30 21:24:05;;;;;;;18.75;7.22;;;;;;;;;;7368997;19;20118;-78
2022/01/30 21:26:31;;;;;;;25.67;5.88;;;;;;;;;;7354029;19;20010;-79
2022/01/30 21:28:57;;;;;;;23.20;8.00;;;;;;;;;;7339300;19;20015;-78
2022/01/30 21:31:22;;;;;;;21.25;6.30;;;;;;;;;;7354208;19;20372;-81
2022/01/30 21:33:48;;;;;;;17.58;5.95;;;;;;;;;;7378090;19;20093;-79
2022/01/30 21:36:13;;;;;;;18.63;7.15;;;;;;;;;;7364879;19;21092;-80
2022/01/30 21:38:39;;;;;;;19.50;6.30;;;;;;;;;;7355324;19;20022;-79
2022/01/30 21:41:04;;;;;;;20.63;5.93;;;;;;;;;;7366603;19;20501;-83
2022/01/30 21:43:29;;;;;;;28.45;6.68;;;;;;;;;;7367681;19;20043;-80
2022/01/30 21:45:55;;;;;;;28.55;7.72;;;;;;;;;;7372616;19;20014;-80
2022/01/30 21:48:20;;;;;;;20.58;5.38;;;;;;;;;;7358122;19;20006;-80
2022/01/30 21:50:45;;;;;;;21.27;6.13;;;;;;;;;;7377672;19;20011;-81
2022/01/30 21:53:11;;;;;;;17.00;5.80;;;;;;;;;;7380991;19;20050;-82
2022/01/30 21:55:36;;;;;;;21.58;7.10;;;;;;;;;;7362748;19;20025;-81
2022/01/30 21:58:05;;;;;;;23.88;7.50;;;;;;;;;;7377313;19;20026;-79
2022/01/30 22:00:30;;;;;;;20.73;6.78;;;;;;;;;;7348021;19;20562;-81
2022/01/30 22:02:55;;;;;;;22.10;6.97;;;;;;;;;;7346853;19;20019;-80
2022/01/30 22:05:21;;;;;;;19.40;5.72;;;;;;;;;;7366001;19;20344;-80
2022/01/30 22:07:46;;;;;;;22.48;7.78;;;;;;;;;;7380404;19;20030;-82
2022/01/30 22:12:50;;;;;;;30.05;9.18;;;;;;;;;;7367763;19;20024;-82
2022/01/30 22:15:17;;;;;;;24.52;7.03;;;;;;;;;;7382170;19;20458;-81
2022/01/30 22:17:43;;;;;;;19.02;6.43;;;;;;;;;;7352272;19;20042;-78
2022/01/30 22:20:09;;;;;;;27.05;6.55;;;;;;;;;;7362362;19;20022;-81
2022/01/30 22:22:35;;;;;;;24.40;7.57;;;;;;;;;;7362069;19;20588;-80
2022/01/30 22:25:01;;;;;;;23.38;7.60;;;;;;;;;;7357237;19;20007;-79
2022/01/30 22:27:26;;;;;;;26.20;6.72;;;;;;;;;;7336560;19;20014;-81
2022/01/30 22:29:51;;;;;;;22.23;6.47;;;;;;;;;;7338881;19;20031;-80
2022/01/30 22:32:19;;;;;;;19.08;5.43;;;;;;;;;;7322532;19;20083;-79
2022/01/30 22:34:45;;;;;;;28.75;8.32;;;;;;;;;;7375781;19;20046;-80
2022/01/30 22:37:10;;;;;;;22.85;5.97;;;;;;;;;;7375576;19;20014;-79
2022/01/30 22:42:07;;;;;;;23.95;5.85;;;;;;;;;;7360863;19;20275;-79
2022/01/30 22:44:32;;;;;;;18.85;5.13;;;;;;;;;;7361819;19;20018;-79
2022/01/30 22:46:58;;;;;;;25.17;5.13;;;;;;;;;;7363316;19;20758;-80
2022/01/30 22:49:23;;;;;;;17.35;4.65;;;;;;;;;;7368252;19;20026;-79
2022/01/30 22:51:48;;;;;;;20.75;5.57;;;;;;;;;;7365240;19;20048;-79
2022/01/30 22:54:13;;;;;;;36.33;5.50;;;;;;;;;;7360531;19;19999;-78
2022/01/30 22:56:38;;;;;;;22.65;5.78;;;;;;;;;;7363709;19;20022;-80
2022/01/30 22:59:04;;;;;;;20.27;5.47;;;;;;;;;;7367237;19;20006;-79
2022/01/30 23:01:30;;;;;;;23.58;5.78;;;;;;;;;;7303621;19;20014;-79
2022/01/30 23:03:55;;;;;;;20.20;5.28;;;;;;;;;;7341328;19;20018;-79
2022/01/30 23:06:21;;;;;;;24.40;5.53;;;;;;;;;;7353798;19;20430;-77
2022/01/30 23:08:46;;;;;;;28.80;6.75;;;;;;;;;;7310404;19;20529;-78
2022/01/30 23:11:11;;;;;;;19.27;6.15;;;;;;;;;;7343210;19;20041;-78
2022/01/30 23:13:36;;;;;;;18.48;5.32;;;;;;;;;;7371547;19;20014;-78
2022/01/30 23:16:02;;;;;;;18.80;5.13;;;;;;;;;;7364291;19;20029;-77
2022/01/30 23:18:28;;;;;;;18.50;4.95;;;;;;;;;;7363438;19;20018;-78
2022/01/30 23:20:54;;;;;;;28.58;5.07;;;;;;;;;;7372230;19;20011;-78
2022/01/30 23:23:19;;;;;;;23.63;5.30;;;;;;;;;;7378364;19;20022;-78
2022/01/30 23:25:46;;;;;;;19.67;5.32;;;;;;;;;;7357632;19;20038;-78
2022/01/30 23:28:12;;;;;;;22.02;5.20;;;;;;;;;;7372553;19;19998;-78
2022/01/30 23:30:37;;;;;;;23.38;4.95;;;;;;;;;;7353832;19;20324;-77
2022/01/30 23:33:02;;;;;;;17.77;4.88;;;;;;;;;;7372465;19;20788;-79
2022/01/30 23:35:28;;;;;;;21.58;4.45;;;;;;;;;;7376032;19;20389;-79
2022/01/30 23:37:54;;;;;;;16.92;4.60;;;;;;;;;;7367311;19;20014;-78
2022/01/30 23:42:58;;;;;;;21.23;4.45;;;;;;;;;;7367422;19;20029;-77
2022/01/30 23:45:23;;;;;;;17.00;4.28;;;;;;;;;;7367790;19;20558;-77
2022/01/30 23:47:50;;;;;;;23.33;4.43;;;;;;;;;;7369031;19;20021;-77
2022/01/30 23:50:16;;;;;;;15.52;3.90;;;;;;;;;;7366904;19;20013;-78
2022/01/30 23:52:42;;;;;;;25.00;5.10;;;;;;;;;;7373523;19;20481;-79
2022/01/30 23:55:08;;;;;;;24.42;3.80;;;;;;;;;;7370931;19;19990;-79
2022/01/30 23:57:34;;;;;;;28.27;5.00;;;;;;;;;;7365651;19;20469;-78
2022/01/30 23:59:59;;;;;;;27.95;4.75;;;;;;;;;;7371566;19;20010;-77
